Time;durP1;ratioP1;P1;durP2;ratioP2;P2;SDS_P1;SDS_P2;PMS_P1;PMS_P2;Temp;Humidity;BMP_temperature;BMP_pressure;BME280_temperature;BME280_humidity;BME280_pressure;Samples;Min_cycle;Max_cycle;Signal;HPM_P1;HPM_P2
2023/03/01 00:00:15;;;;;;;11.57;5.55;;;2.40;88.50;;;;;;5052408;28;20040;-69
2023/03/01 00:02:40;;;;;;;13.55;5.75;;;2.40;88.80;;;;;;5052023;28;20494;-68
2023/03/01 00:05:07;;;;;;;12.55;5.63;;;2.40;88.90;;;;;;5052827;28;20048;-68
2023/03/01 00:07:33;;;;;;;11.93;5.55;;;2.40;89.30;;;;;;5052272;28;20029;-69
2023/03/01 00:09:59;;;;;;;17.20;6.50;;;2.30;89.70;;;;;;5052034;28;20043;-68
2023/03/01 00:12:24;;;;;;;16.23;6.75;;;2.40;89.80;;;;;;5052067;28;20029;-68
2023/03/01 00:14:50;;;;;;;12.07;5.95;;;2.30;89.70;;;;;;5051904;28;20463;-67
2023/03/01 00:17:16;;;;;;;13.55;5.97;;;2.40;90.00;;;;;;5051583;28;20016;-68
2023/03/01 00:19:42;;;;;;;13.73;6.18;;;2.30;90.00;;;;;;5051951;28;20482;-68
2023/03/01 00:22:08;;;;;;;12.57;6.30;;;2.30;90.00;;;;;;5050720;28;20109;-68
2023/03/01 00:24:33;;;;;;;16.13;6.43;;;2.30;90.30;;;;;;5052150;28;20463;-68
2023/03/01 00:26:59;;;;;;;13.80;5.57;;;2.10;90.40;;;;;;5050611;28;20029;-68
2023/03/01 00:29:24;;;;;;;14.20;6.57;;;2.10;90.60;;;;;;5050341;28;20486;-67
2023/03/01 00:31:51;;;;;;;15.75;6.20;;;2.10;90.60;;;;;;5052059;28;20426;-68
2023/03/01 00:34:16;;;;;;;13.95;6.65;;;2.10;90.60;;;;;;5051537;28;20083;-68
2023/03/01 00:36:42;;;;;;;16.77;7.32;;;2.10;90.60;;;;;;5050482;28;20021;-68
2023/03/01 00:39:12;;;;;;;14.93;7.10;;;2.30;90.70;;;;;;5050500;28;20032;-68
2023/03/01 00:41:39;;;;;;;17.67;7.47;;;2.10;90.80;;;;;;5051434;28;20025;-68
2023/03/01 00:44:05;;;;;;;14.63;6.85;;;2.10;90.90;;;;;;5051851;28;20060;-66
2023/03/01 00:46:31;;;;;;;15.35;6.70;;;2.00;91.30;;;;;;5050247;28;20059;-68
2023/03/01 00:48:56;;;;;;;16.55;7.45;;;2.10;91.10;;;;;;5051261;28;20463;-68
2023/03/01 00:51:25;;;;;;;16.83;6.95;;;2.00;91.10;;;;;;5051085;28;20115;-68
2023/03/01 00:53:53;;;;;;;13.65;7.07;;;2.10;91.10;;;;;;5051183;28;20025;-66
2023/03/01 00:56:19;;;;;;;19.35;7.15;;;2.10;91.20;;;;;;5051139;28;20083;-67
2023/03/01 00:58:45;;;;;;;18.48;7.03;;;2.00;91.40;;;;;;5051878;28;20029;-68
2023/03/01 01:01:31;;;;;;;14.70;7.32;;;1.90;91.60;;;;;;5051029;28;20108;-67
2023/03/01 01:04:00;;;;;;;13.90;6.97;;;1.80;91.80;;;;;;5050745;28;20455;-68
2023/03/01 01:06:38;;;;;;;14.40;6.68;;;1.80;91.90;;;;;;5050895;28;20047;-68
2023/03/01 01:09:06;;;;;;;17.75;7.65;;;1.70;91.90;;;;;;5049914;28;20367;-67
2023/03/01 01:11:32;;;;;;;12.35;6.57;;;1.70;91.90;;;;;;5049606;28;20420;-68
2023/03/01 01:13:58;;;;;;;15.98;7.07;;;1.70;92.00;;;;;;5050084;28;20028;-67
2023/03/01 01:16:26;;;;;;;14.48;6.50;;;1.70;92.00;;;;;;5050756;28;20108;-67
2023/03/01 01:18:52;;;;;;;16.65;6.90;;;1.70;92.10;;;;;;5050692;28;20159;-67
2023/03/01 01:21:22;;;;;;;16.92;7.22;;;1.70;92.20;;;;;;5050672;28;20089;-68
2023/03/01 01:23:49;;;;;;;12.68;6.63;;;1.70;92.10;;;;;;5050537;28;20459;-68
2023/03/01 01:26:17;;;;;;;13.55;5.85;;;1.70;92.30;;;;;;5049769;28;20129;-69
2023/03/01 01:28:43;;;;;;;12.38;5.60;;;1.60;92.30;;;;;;5051022;28;20052;-68
2023/03/01 01:31:09;;;;;;;11.75;5.60;;;1.70;92.30;;;;;;5050426;28;20052;-68
2023/03/01 01:33:37;;;;;;;19.25;6.60;;;1.50;92.50;;;;;;5050557;28;20095;-68
2023/03/01 01:36:03;;;;;;;14.20;6.28;;;1.50;92.60;;;;;;5050610;28;20108;-68
2023/03/01 01:38:29;;;;;;;17.52;6.70;;;1.50;92.80;;;;;;5050482;28;20039;-68
2023/03/01 01:40:55;;;;;;;11.65;5.82;;;1.50;92.90;;;;;;5050698;28;20016;-68
2023/03/01 01:43:27;;;;;;;16.40;5.53;;;1.50;92.90;;;;;;5050425;28;20040;-68
2023/03/01 01:45:59;;;;;;;13.00;5.65;;;1.40;92.90;;;;;;5050389;28;20029;-68
2023/03/01 01:48:42;;;;;;;15.70;6.20;;;1.50;93.00;;;;;;5050492;28;20033;-68
2023/03/01 01:51:17;;;;;;;12.50;6.15;;;1.40;93.00;;;;;;5050270;28;20044;-69
2023/03/01 01:53:48;;;;;;;13.68;5.97;;;1.40;93.10;;;;;;5049215;28;20028;-68
2023/03/01 01:56:16;;;;;;;13.10;5.93;;;1.40;93.20;;;;;;5049995;28;20033;-68
2023/03/01 01:58:43;;;;;;;14.07;5.75;;;1.40;93.20;;;;;;5050490;28;20036;-69
2023/03/01 02:01:09;;;;;;;12.13;5.85;;;1.40;93.30;;;;;;5050350;28;20120;-69
2023/03/01 02:03:41;;;;;;;13.43;6.13;;;1.40;93.20;;;;;;5050395;28;20428;-68
2023/03/01 02:06:28;;;;;;;14.63;5.30;;;1.30;93.20;;;;;;5050558;28;20033;-67
2023/03/01 02:08:57;;;;;;;15.65;6.53;;;1.30;93.40;;;;;;5049018;28;20039;-69
2023/03/01 02:11:23;;;;;;;14.55;5.93;;;1.30;93.50;;;;;;5050048;28;20032;-69
2023/03/01 02:13:50;;;;;;;14.73;6.03;;;1.20;93.60;;;;;;5050559;28;20021;-68
2023/03/01 02:16:16;;;;;;;12.02;6.15;;;1.20;93.50;;;;;;5050264;28;20119;-68
2023/03/01 02:18:43;;;;;;;10.88;5.82;;;1.20;93.50;;;;;;5050130;28;20467;-68
2023/03/01 02:21:30;;;;;;;11.18;5.38;;;1.30;93.60;;;;;;5050146;28;20029;-69
2023/03/01 02:23:57;;;;;;;12.48;5.72;;;1.20;93.70;;;;;;5050331;28;20029;-69
2023/03/01 02:26:31;;;;;;;13.93;6.43;;;1.10;93.60;;;;;;5050227;28;20107;-68
2023/03/01 02:28:57;;;;;;;11.55;5.72;;;1.10;93.80;;;;;;5050349;28;20025;-68
2023/03/01 02:31:41;;;;;;;12.00;6.38;;;1.10;93.70;;;;;;5049760;28;20152;-67
2023/03/01 02:34:18;;;;;;;13.27;6.43;;;1.20;93.80;;;;;;5049898;28;20143;-69
2023/03/01 02:36:47;;;;;;;16.70;6.10;;;1.30;93.90;;;;;;5082208;28;20046;-68
2023/03/01 02:39:18;;;;;;;13.25;6.25;;;1.30;93.60;;;;;;5089305;28;20047;-68
2023/03/01 02:41:51;;;;;;;13.02;5.53;;;1.30;93.60;;;;;;5090085;28;20365;-69
2023/03/01 02:44:17;;;;;;;15.85;6.28;;;1.20;93.80;;;;;;5090331;28;20077;-69
2023/03/01 02:46:46;;;;;;;10.15;6.00;;;1.30;93.80;;;;;;5089297;28;20067;-69
2023/03/01 02:49:30;;;;;;;12.80;6.43;;;1.20;93.70;;;;;;5090276;28;20105;-68
2023/03/01 02:52:21;;;;;;;12.98;5.85;;;1.20;93.80;;;;;;5088830;28;20036;-68
2023/03/01 02:55:01;;;;;;;16.02;6.75;;;1.30;93.60;;;;;;5092793;28;20039;-67
2023/03/01 02:57:28;;;;;;;13.27;6.60;;;1.30;93.70;;;;;;5093616;28;20454;-68
2023/03/01 02:59:56;;;;;;;13.10;6.40;;;1.30;93.80;;;;;;5093766;28;20485;-68
2023/03/01 03:02:46;;;;;;;;;;;1.20;93.80;;;;;;5092997;28;20557;-69
2023/03/01 03:05:15;;;;;;;11.65;6.43;;;1.10;94.00;;;;;;5093855;28;19900;-68
2023/03/01 03:07:43;;;;;;;13.38;6.50;;;1.00;94.10;;;;;;5093567;28;20119;-68
2023/03/01 03:10:19;;;;;;;15.95;7.22;;;1.00;94.30;;;;;;5093301;28;20547;-68
2023/03/01 03:12:52;;;;;;;12.05;6.65;;;1.00;94.30;;;;;;5093334;28;20043;-69
2023/03/01 03:15:20;;;;;;;13.68;6.60;;;1.00;94.40;;;;;;5093372;28;20027;-68
2023/03/01 03:17:45;;;;;;;14.93;7.07;;;1.00;94.30;;;;;;5092135;28;20020;-70
2023/03/01 03:20:18;;;;;;;12.88;6.13;;;0.90;94.40;;;;;;5093614;28;20039;-69
2023/03/01 03:22:48;;;;;;;13.88;6.78;;;1.00;94.40;;;;;;5093134;28;20127;-68
2023/03/01 03:25:15;;;;;;;13.98;6.63;;;1.00;94.40;;;;;;5091870;28;20477;-68
2023/03/01 03:27:43;;;;;;;14.18;6.90;;;1.00;94.30;;;;;;5092823;28;20028;-68
2023/03/01 03:30:12;;;;;;;14.65;6.53;;;1.00;94.40;;;;;;5092788;28;20077;-69
2023/03/01 03:32:50;;;;;;;14.50;6.78;;;0.90;94.40;;;;;;5092824;28;20358;-68
2023/03/01 03:35:16;;;;;;;14.13;6.45;;;0.90;94.50;;;;;;5093502;28;20077;-68
2023/03/01 03:40:28;;;;;;;14.15;7.32;;;0.80;94.50;;;;;;5092783;28;20042;-68
2023/03/01 03:42:54;;;;;;;12.85;6.90;;;0.80;94.60;;;;;;5092809;28;20066;-69
2023/03/01 03:45:20;;;;;;;13.80;6.97;;;0.80;94.70;;;;;;5092707;28;20032;-68
2023/03/01 03:47:46;;;;;;;17.13;6.97;;;0.80;94.70;;;;;;5092430;28;20039;-68
2023/03/01 03:50:13;;;;;;;17.02;6.75;;;0.80;94.70;;;;;;5092888;28;20028;-69
2023/03/01 03:52:39;;;;;;;21.25;6.32;;;0.70;94.80;;;;;;5092873;28;20024;-68
2023/03/01 03:55:10;;;;;;;15.07;7.35;;;0.60;94.80;;;;;;5092367;28;20028;-68
2023/03/01 03:57:40;;;;;;;12.77;6.63;;;0.70;94.90;;;;;;5091960;28;20400;-68
2023/03/01 04:00:12;;;;;;;15.60;7.60;;;0.70;94.80;;;;;;5092018;28;20362;-69
2023/03/01 04:02:42;;;;;;;16.15;6.90;;;0.70;94.70;;;;;;5092313;28;20062;-68
2023/03/01 04:05:09;;;;;;;17.58;7.32;;;0.70;94.70;;;;;;5092593;28;20384;-68
2023/03/01 04:07:36;;;;;;;17.17;7.40;;;0.60;94.90;;;;;;5092192;28;20040;-68
2023/03/01 04:10:08;;;;;;;13.05;7.22;;;0.60;95.10;;;;;;5090834;28;20347;-68
2023/03/01 04:12:34;;;;;;;15.63;6.97;;;0.70;95.00;;;;;;5092080;28;20089;-68
2023/03/01 04:15:01;;;;;;;15.35;7.43;;;0.70;95.00;;;;;;5091925;28;20024;-68
2023/03/01 04:17:27;;;;;;;16.65;7.93;;;0.60;95.00;;;;;;5091838;28;20028;-69
2023/03/01 04:19:52;;;;;;;12.20;7.00;;;0.60;95.00;;;;;;5091336;28;20089;-69
2023/03/01 04:22:18;;;;;;;17.33;8.15;;;0.60;95.00;;;;;;5091777;28;20482;-69
2023/03/01 04:24:44;;;;;;;18.15;7.50;;;0.60;94.90;;;;;;5091853;28;20047;-69
2023/03/01 04:27:11;;;;;;;15.85;6.72;;;0.60;94.70;;;;;;5091818;28;20039;-69
2023/03/01 04:29:36;;;;;;;18.52;7.97;;;0.70;94.80;;;;;;5091355;28;20093;-70
2023/03/01 04:32:02;;;;;;;14.60;6.78;;;0.60;95.00;;;;;;5092084;28;20088;-68
2023/03/01 04:34:29;;;;;;;20.70;7.00;;;0.60;95.00;;;;;;5091731;28;20474;-67
2023/03/01 04:36:55;;;;;;;13.88;6.72;;;0.60;95.10;;;;;;5090620;28;20177;-68
2023/03/01 04:39:21;;;;;;;18.80;7.05;;;0.60;94.80;;;;;;5091607;28;20031;-67
2023/03/01 04:41:47;;;;;;;19.20;6.95;;;0.70;94.70;;;;;;5090425;28;20384;-68
2023/03/01 04:44:13;;;;;;;17.35;8.07;;;0.70;94.60;;;;;;5092087;28;20020;-67
2023/03/01 04:46:39;;;;;;;18.15;7.80;;;0.80;94.60;;;;;;5091113;28;20457;-69
2023/03/01 04:49:05;;;;;;;17.85;7.53;;;0.80;94.70;;;;;;5090030;28;20039;-69
2023/03/01 04:51:32;;;;;;;17.35;7.65;;;0.70;94.80;;;;;;5091445;28;20038;-69
2023/03/01 04:53:58;;;;;;;18.52;7.28;;;0.70;94.90;;;;;;5091526;28;20024;-67
2023/03/01 04:56:24;;;;;;;19.60;7.70;;;0.90;94.30;;;;;;5091859;28;20024;-70
2023/03/01 04:58:52;;;;;;;18.38;9.93;;;0.80;94.50;;;;;;5090683;28;20059;-68
2023/03/01 05:01:19;;;;;;;17.70;7.70;;;0.80;94.60;;;;;;5090979;28;20028;-68
2023/03/01 05:03:50;;;;;;;14.47;7.60;;;0.70;94.70;;;;;;5090793;28;20147;-69
2023/03/01 05:06:18;;;;;;;12.18;6.88;;;0.60;94.80;;;;;;5091415;28;20097;-69
2023/03/01 05:08:44;;;;;;;15.88;7.38;;;0.60;95.00;;;;;;5090985;28;20028;-68
2023/03/01 05:11:10;;;;;;;15.05;7.15;;;0.60;95.00;;;;;;5090432;28;20085;-69
2023/03/01 05:13:37;;;;;;;12.90;6.70;;;0.50;95.10;;;;;;5091018;28;20024;-70
2023/03/01 05:16:04;;;;;;;14.75;7.90;;;0.40;95.20;;;;;;5090295;28;20506;-68
2023/03/01 05:18:34;;;;;;;15.63;6.75;;;0.40;95.30;;;;;;5090760;28;20093;-69
2023/03/01 05:21:09;;;;;;;17.30;7.28;;;0.30;95.40;;;;;;5090743;28;20039;-68
2023/03/01 05:23:36;;;;;;;15.35;7.55;;;0.40;95.50;;;;;;5090854;28;20034;-68
2023/03/01 05:26:03;;;;;;;14.98;7.50;;;0.40;95.40;;;;;;5091435;28;20032;-69
2023/03/01 05:28:30;;;;;;;15.73;7.38;;;0.40;95.40;;;;;;5090871;28;20048;-69
2023/03/01 05:30:57;;;;;;;16.27;7.13;;;0.40;95.50;;;;;;5090335;28;20505;-70
2023/03/01 05:33:23;;;;;;;16.67;7.53;;;0.30;95.40;;;;;;5090544;28;20024;-69
2023/03/01 05:35:51;;;;;;;16.77;7.38;;;0.20;95.50;;;;;;5090890;28;20043;-69
2023/03/01 05:38:17;;;;;;;13.93;7.22;;;0.30;95.60;;;;;;5090656;28;20461;-69
2023/03/01 05:40:45;;;;;;;17.48;7.63;;;0.50;95.60;;;;;;5090009;28;20028;-68
2023/03/01 05:43:13;;;;;;;18.15;8.23;;;0.40;95.50;;;;;;5090817;28;20131;-68
2023/03/01 05:45:39;;;;;;;13.98;6.75;;;0.50;95.30;;;;;;5090866;28;20032;-69
2023/03/01 05:48:06;;;;;;;13.30;6.65;;;0.40;95.20;;;;;;5090511;28;20032;-69
2023/03/01 05:50:34;;;;;;;16.80;7.70;;;0.30;95.20;;;;;;5090451;28;20027;-69
2023/03/01 05:53:19;;;;;;;18.52;8.00;;;0.40;95.40;;;;;;5091140;28;20074;-69
2023/03/01 05:55:47;;;;;;;17.38;7.07;;;0.20;95.50;;;;;;5090612;28;20178;-70
2023/03/01 05:58:14;;;;;;;;;;;0.20;95.40;;;;;;5090894;28;20028;-69
2023/03/01 06:00:40;;;;;;;15.23;7.38;;;0.10;95.50;;;;;;5090379;28;19919;-69
2023/03/01 06:03:06;;;;;;;19.60;7.15;;;0.10;95.60;;;;;;5089144;28;20462;-69
2023/03/01 06:05:32;;;;;;;13.55;7.00;;;0.10;95.50;;;;;;5090380;28;20028;-69
2023/03/01 06:08:01;;;;;;;18.58;7.80;;;0.10;95.50;;;;;;5089639;28;20100;-70
2023/03/01 06:10:27;;;;;;;21.33;7.05;;;0.10;95.60;;;;;;5090167;28;20056;-68
2023/03/01 06:12:53;;;;;;;15.88;7.30;;;0.00;95.60;;;;;;5090313;28;20032;-68
2023/03/01 06:15:20;;;;;;;18.42;8.18;;;0.10;95.70;;;;;;5090298;28;20145;-70
2023/03/01 06:17:46;;;;;;;18.42;6.95;;;0.20;94.80;;;;;;5090268;28;20434;-69
2023/03/01 06:20:20;;;;;;;21.30;7.60;;;0.30;95.30;;;;;;5090501;28;20035;-69
2023/03/01 06:22:47;;;;;;;23.05;8.13;;;0.20;95.40;;;;;;5090290;28;20028;-70
2023/03/01 06:25:17;;;;;;;17.97;8.00;;;0.30;95.40;;;;;;5089233;28;20028;-69
2023/03/01 06:27:43;;;;;;;23.58;7.63;;;0.40;95.30;;;;;;5090125;28;20039;-69
2023/03/01 06:30:11;;;;;;;17.55;7.07;;;0.40;94.70;;;;;;5092652;28;20082;-69
2023/03/01 06:32:37;;;;;;;28.08;9.00;;;0.50;94.50;;;;;;5093563;28;20450;-70
2023/03/01 06:35:04;;;;;;;20.80;9.80;;;0.70;94.40;;;;;;5094428;28;20028;-69
2023/03/01 06:37:30;;;;;;;17.45;8.07;;;0.70;94.70;;;;;;5094165;28;20034;-68
2023/03/01 06:39:55;;;;;;;20.05;8.45;;;0.70;94.70;;;;;;5092626;28;20032;-69
2023/03/01 06:42:21;;;;;;;20.85;8.23;;;0.70;94.50;;;;;;5093873;28;20470;-68
2023/03/01 06:44:47;;;;;;;18.85;7.70;;;0.70;94.40;;;;;;5093775;28;20086;-68
2023/03/01 06:47:13;;;;;;;17.60;8.38;;;0.70;94.50;;;;;;5093075;28;20028;-68
2023/03/01 06:49:38;;;;;;;17.67;7.47;;;0.70;94.70;;;;;;5093692;28;20043;-67
2023/03/01 06:52:04;;;;;;;15.43;7.75;;;0.60;95.00;;;;;;5093703;28;20104;-67
2023/03/01 06:54:30;;;;;;;17.35;7.97;;;0.70;95.10;;;;;;5093651;28;20040;-67
2023/03/01 06:56:55;;;;;;;15.20;7.35;;;0.70;95.00;;;;;;5093456;28;20100;-69
2023/03/01 06:59:21;;;;;;;17.23;8.13;;;0.70;95.00;;;;;;5093387;28;20485;-68
2023/03/01 07:01:47;;;;;;;20.63;8.35;;;0.70;95.10;;;;;;5093782;28;20107;-68
2023/03/01 07:04:13;;;;;;;16.77;8.25;;;0.80;94.70;;;;;;5093418;28;20090;-68
2023/03/01 07:06:39;;;;;;;18.65;8.38;;;0.80;95.00;;;;;;5093503;28;20466;-68
2023/03/01 07:09:05;;;;;;;20.77;8.52;;;0.80;95.10;;;;;;5093329;28;20074;-68
2023/03/01 07:11:30;;;;;;;20.30;8.63;;;0.90;94.90;;;;;;5093196;28;20470;-68
2023/03/01 07:13:56;;;;;;;17.73;7.75;;;0.90;94.50;;;;;;5093608;28;20028;-69
2023/03/01 07:16:22;;;;;;;18.60;8.48;;;1.00;94.60;;;;;;5093284;28;20044;-69
2023/03/01 07:18:48;;;;;;;26.52;9.85;;;1.10;94.60;;;;;;5059120;28;20118;-68
2023/03/01 07:21:16;;;;;;;25.85;7.95;;;1.20;94.50;;;;;;5052596;28;20139;-73
2023/03/01 07:23:41;;;;;;;17.35;8.02;;;1.40;94.70;;;;;;5052633;28;20106;-66
2023/03/01 07:26:07;;;;;;;24.40;8.27;;;1.60;94.70;;;;;;5053137;28;20447;-73
2023/03/01 07:28:38;;;;;;;24.67;8.45;;;1.50;94.60;;;;;;5052804;28;20040;-74
2023/03/01 07:31:05;;;;;;;19.90;8.35;;;1.60;94.60;;;;;;5051308;28;20044;-70
2023/03/01 07:33:31;;;;;;;15.48;7.65;;;1.60;94.30;;;;;;5062063;28;20120;-73
2023/03/01 07:36:01;;;;;;;19.20;7.50;;;1.60;94.30;;;;;;5071851;28;20040;-72
2023/03/01 07:38:28;;;;;;;18.27;8.07;;;1.70;94.40;;;;;;5072826;28;20032;-72
2023/03/01 07:40:58;;;;;;;21.52;8.60;;;1.70;94.20;;;;;;5071379;28;20115;-72
2023/03/01 07:43:24;;;;;;;19.83;7.45;;;1.70;94.30;;;;;;5072595;28;20041;-68
2023/03/01 07:45:49;;;;;;;17.70;7.95;;;1.80;94.20;;;;;;5072362;28;20557;-70
2023/03/01 07:48:15;;;;;;;26.92;10.25;;;2.20;94.20;;;;;;5072217;28;20085;-71
2023/03/01 07:50:41;;;;;;;21.98;8.30;;;2.00;94.10;;;;;;5072432;28;20036;-72
2023/03/01 07:53:06;;;;;;;17.10;7.50;;;2.10;94.00;;;;;;5072912;28;20117;-72
2023/03/01 07:55:32;;;;;;;18.88;7.65;;;2.20;93.80;;;;;;5072861;28;20028;-71
2023/03/01 07:57:57;;;;;;;21.27;8.30;;;2.20;93.60;;;;;;5072229;28;20036;-72
2023/03/01 08:00:23;;;;;;;16.58;7.20;;;2.30;93.70;;;;;;5071011;28;20024;-73
2023/03/01 08:02:49;;;;;;;14.38;7.43;;;2.40;93.50;;;;;;5072017;28;20036;-70
2023/03/01 08:05:14;;;;;;;15.73;6.95;;;2.50;93.40;;;;;;5072446;28;20059;-69
2023/03/01 08:07:40;;;;;;;18.10;7.80;;;2.60;93.20;;;;;;5072304;28;20332;-71
2023/03/01 08:10:06;;;;;;;22.77;8.20;;;2.60;93.20;;;;;;5071636;28;20052;-68
2023/03/01 08:12:32;;;;;;;14.98;7.05;;;2.70;93.10;;;;;;5072010;28;20458;-74
2023/03/01 08:14:58;;;;;;;17.58;7.85;;;2.80;93.40;;;;;;5072341;28;20035;-75
2023/03/01 08:17:23;;;;;;;24.27;9.30;;;2.90;93.00;;;;;;5072393;28;20062;-75
2023/03/01 08:19:49;;;;;;;88.57;24.98;;;3.00;92.70;;;;;;5071456;28;20454;-75
2023/03/01 08:22:15;;;;;;;59.67;20.60;;;3.00;92.70;;;;;;5071677;28;20041;-73
2023/03/01 08:24:40;;;;;;;25.80;8.82;;;3.00;92.50;;;;;;5071926;28;20037;-74
2023/03/01 08:27:06;;;;;;;16.70;7.20;;;3.30;92.60;;;;;;5071873;28;20033;-74
2023/03/01 08:29:33;;;;;;;21.90;10.35;;;3.30;92.90;;;;;;5071914;28;20037;-76
2023/03/01 08:31:59;;;;;;;20.05;8.57;;;3.20;92.60;;;;;;5071650;28;20035;-74
2023/03/01 08:34:25;;;;;;;14.20;7.25;;;3.20;92.40;;;;;;5071684;28;20024;-73
2023/03/01 08:36:52;;;;;;;23.48;7.07;;;3.30;92.50;;;;;;5071524;28;20516;-75
2023/03/01 08:39:19;;;;;;;15.20;7.30;;;3.50;92.20;;;;;;5071555;28;20059;-74
2023/03/01 08:41:46;;;;;;;17.95;6.75;;;3.50;92.30;;;;;;5071284;28;20458;-73
2023/03/01 08:44:13;;;;;;;16.38;7.35;;;3.60;91.90;;;;;;5071632;28;20012;-72
2023/03/01 08:46:41;;;;;;;15.33;7.17;;;3.70;91.70;;;;;;5070424;28;20267;-71
2023/03/01 08:49:08;;;;;;;14.20;5.60;;;3.80;91.60;;;;;;5071314;28;20744;-71
2023/03/01 08:51:36;;;;;;;19.77;5.50;;;4.00;91.50;;;;;;5070167;28;20052;-72
2023/03/01 08:54:21;;;;;;;10.88;5.47;;;4.10;91.30;;;;;;5070297;28;20452;-70
2023/03/01 08:56:47;;;;;;;13.05;5.72;;;4.30;91.00;;;;;;5071124;28;20040;-69
2023/03/01 08:59:15;;;;;;;16.27;6.47;;;4.50;91.10;;;;;;5071757;28;20372;-73
2023/03/01 09:01:43;;;;;;;16.42;6.47;;;5.10;91.40;;;;;;5071330;28;20074;-72
2023/03/01 09:04:09;;;;;;;15.43;5.13;;;6.10;91.50;;;;;;5071522;28;20025;-75
2023/03/01 09:06:35;;;;;;;12.10;5.68;;;7.00;90.50;;;;;;5070258;28;20059;-72
2023/03/01 09:09:02;;;;;;;10.13;5.22;;;7.70;90.20;;;;;;5071113;28;20051;-72
2023/03/01 09:11:28;;;;;;;9.53;5.07;;;8.50;89.30;;;;;;5070031;28;20040;-74
2023/03/01 09:13:54;;;;;;;12.20;4.63;;;9.20;87.20;;;;;;5071369;28;20119;-72
2023/03/01 09:16:21;;;;;;;8.63;4.75;;;9.70;84.80;;;;;;5069642;28;20454;-74
2023/03/01 09:18:54;;;;;;;14.15;5.15;;;10.30;82.10;;;;;;5070634;28;20039;-75
2023/03/01 09:21:21;;;;;;;13.57;4.85;;;10.80;79.50;;;;;;5070970;28;20033;-74
2023/03/01 09:23:47;;;;;;;15.10;5.03;;;11.20;78.30;;;;;;5070771;28;20039;-72
2023/03/01 09:26:19;;;;;;;11.80;5.03;;;11.20;75.30;;;;;;5071232;28;20257;-75
2023/03/01 09:28:45;;;;;;;9.20;4.57;;;11.90;71.70;;;;;;5071081;28;20044;-72
2023/03/01 09:31:13;;;;;;;10.25;4.55;;;12.40;70.80;;;;;;5070739;28;20041;-73
2023/03/01 09:33:41;;;;;;;10.07;4.50;;;12.70;68.40;;;;;;5069857;28;20498;-73
2023/03/01 09:36:12;;;;;;;7.45;4.20;;;12.50;65.70;;;;;;5071013;28;20372;-72
2023/03/01 09:38:38;;;;;;;9.73;4.05;;;12.80;66.30;;;;;;5069756;28;20043;-74
2023/03/01 09:41:17;;;;;;;7.82;4.15;;;13.20;65.20;;;;;;5070322;28;20028;-72
2023/03/01 09:43:48;;;;;;;7.28;3.92;;;14.10;62.70;;;;;;5070927;28;20078;-74
2023/03/01 09:46:17;;;;;;;11.02;5.13;;;14.50;59.80;;;;;;5070615;28;20486;-69
2023/03/01 09:48:50;;;;;;;9.10;5.18;;;15.00;57.50;;;;;;5070549;28;20037;-73
2023/03/01 09:51:25;;;;;;;7.38;4.13;;;15.00;57.60;;;;;;5070707;28;20043;-75
2023/03/01 09:53:54;;;;;;;8.05;4.70;;;16.30;55.50;;;;;;5070826;28;20028;-72
2023/03/01 09:56:22;;;;;;;;;;;16.90;53.90;;;;;;5070964;28;20047;-73
2023/03/01 09:58:54;;;;;;;8.38;4.30;;;16.60;52.70;;;;;;5069983;28;19950;-74
2023/03/01 10:01:45;;;;;;;19.98;10.95;;;16.60;51.90;;;;;;5069606;28;20382;-74
2023/03/01 10:04:42;;;;;;;9.68;4.63;;;16.70;49.60;;;;;;5074292;28;20345;-73
2023/03/01 10:07:11;;;;;;;13.82;4.95;;;17.10;51.70;;;;;;5074510;28;20506;-73
2023/03/01 10:09:40;;;;;;;9.88;4.80;;;17.30;50.30;;;;;;5074442;28;20111;-74
2023/03/01 10:12:19;;;;;;;9.60;5.82;;;18.70;47.90;;;;;;5073337;28;20036;-75
2023/03/01 10:15:12;;;;;;;10.57;4.95;;;19.70;45.70;;;;;;5074510;28;20557;-73
2023/03/01 10:17:56;;;;;;;7.45;3.97;;;21.00;44.30;;;;;;5074074;28;20043;-72
2023/03/01 10:20:30;;;;;;;7.25;3.80;;;21.30;43.00;;;;;;5074235;28;20052;-74
2023/03/01 10:22:56;;;;;;;7.97;4.20;;;21.80;41.20;;;;;;5073552;28;20115;-73
2023/03/01 10:25:49;;;;;;;6.75;4.40;;;22.60;40.00;;;;;;5073004;28;20046;-72
2023/03/01 10:28:24;;;;;;;8.02;4.93;;;23.10;38.80;;;;;;5074046;28;20052;-72
2023/03/01 10:30:50;;;;;;;7.22;3.85;;;22.30;37.50;;;;;;5072708;28;20040;-71
2023/03/01 10:33:23;;;;;;;8.68;4.13;;;22.50;39.30;;;;;;5073914;28;20055;-72
2023/03/01 10:35:49;;;;;;;7.50;4.40;;;22.00;38.70;;;;;;5074020;28;20051;-71
2023/03/01 10:38:16;;;;;;;7.78;4.10;;;22.10;37.90;;;;;;5074095;28;20025;-69
2023/03/01 10:40:54;;;;;;;12.43;6.13;;;21.70;36.20;;;;;;5073625;28;20171;-70
2023/03/01 10:43:21;;;;;;;9.60;4.72;;;22.40;38.10;;;;;;5074064;28;20028;-74
2023/03/01 10:45:47;;;;;;;7.72;4.43;;;22.80;37.30;;;;;;5073620;28;20028;-73
2023/03/01 10:48:25;;;;;;;10.00;5.05;;;22.30;36.60;;;;;;5073521;28;20332;-73
2023/03/01 10:51:16;;;;;;;5.95;3.80;;;23.50;36.10;;;;;;5073472;28;20351;-72
2023/03/01 10:53:48;;;;;;;10.05;4.28;;;23.90;35.80;;;;;;5073424;28;20032;-71
2023/03/01 10:56:15;;;;;;;11.30;4.85;;;23.90;35.30;;;;;;5074072;28;20111;-70
2023/03/01 10:59:19;;;;;;;8.90;3.13;;;23.80;35.00;;;;;;5073613;28;20036;-70
2023/03/01 11:01:44;;;;;;;11.95;3.80;;;24.20;35.10;;;;;;5073295;28;20036;-70
2023/03/01 11:04:13;;;;;;;6.22;3.35;;;23.70;34.90;;;;;;5073400;28;20371;-72
2023/03/01 11:06:41;;;;;;;5.93;3.55;;;23.20;35.30;;;;;;5073117;28;20029;-72
2023/03/01 11:09:15;;;;;;;;;;;23.30;34.80;;;;;;5072463;28;20024;-74
2023/03/01 11:11:41;;;;;;;6.65;3.78;;;23.70;34.30;;;;;;5072991;28;19912;-73
2023/03/01 11:14:17;;;;;;;6.95;3.58;;;24.50;34.10;;;;;;5071652;28;20073;-75
2023/03/01 11:16:47;;;;;;;11.32;4.95;;;24.10;33.00;;;;;;5073226;28;20040;-74
2023/03/01 11:19:12;;;;;;;6.68;2.95;;;23.30;34.00;;;;;;5073088;28;20481;-72
2023/03/01 11:21:50;;;;;;;7.00;3.63;;;24.10;33.30;;;;;;5072742;28;20127;-71
2023/03/01 11:24:18;;;;;;;6.82;3.47;;;24.60;32.60;;;;;;5072888;28;20458;-72
2023/03/01 11:26:53;;;;;;;7.95;3.47;;;24.40;32.60;;;;;;5072936;28;20109;-70
2023/03/01 11:29:32;;;;;;;5.82;3.08;;;24.20;31.80;;;;;;5072583;28;20129;-71
2023/03/01 11:32:02;;;;;;;8.40;3.28;;;23.80;32.50;;;;;;5073073;28;20040;-71
2023/03/01 11:34:42;;;;;;;4.22;2.83;;;23.80;32.40;;;;;;5072571;28;20052;-71
2023/03/01 11:37:31;;;;;;;5.47;3.00;;;24.00;31.00;;;;;;5071723;28;20032;-70
2023/03/01 11:40:00;;;;;;;9.80;4.32;;;23.40;31.00;;;;;;5071317;28;20075;-71
2023/03/01 11:42:42;;;;;;;5.85;3.20;;;23.20;31.70;;;;;;5072492;28;20052;-71
2023/03/01 11:45:11;;;;;;;5.90;2.83;;;23.60;31.30;;;;;;5071880;28;20399;-70
2023/03/01 11:48:01;;;;;;;6.32;2.97;;;23.70;31.40;;;;;;5072384;28;20028;-71
2023/03/01 11:50:42;;;;;;;4.47;3.05;;;23.40;30.90;;;;;;5072588;28;20056;-70
2023/03/01 11:53:23;;;;;;;4.38;2.80;;;22.20;30.80;;;;;;5073066;28;20526;-70
2023/03/01 11:56:07;;;;;;;4.63;2.92;;;22.20;31.60;;;;;;5072729;28;20033;-74
2023/03/01 11:59:26;;;;;;;7.13;3.42;;;21.50;31.90;;;;;;5072489;28;20466;-68
2023/03/01 12:02:04;;;;;;;5.95;3.15;;;20.30;33.00;;;;;;4994121;28;20046;-70
2023/03/01 12:04:51;;;;;;;9.85;4.97;;;19.30;33.20;;;;;;5010209;28;20506;-69
2023/03/01 12:07:23;;;;;;;4.60;2.90;;;18.60;33.90;;;;;;5059959;28;20070;-69
2023/03/01 12:10:00;;;;;;;5.78;2.90;;;18.00;34.30;;;;;;5072322;28;20040;-74
2023/03/01 12:12:31;;;;;;;7.35;3.53;;;17.50;34.90;;;;;;5072226;28;20391;-70
2023/03/01 12:15:32;;;;;;;4.13;2.78;;;17.20;35.30;;;;;;5070952;28;20358;-70
2023/03/01 12:18:32;;;;;;;5.32;2.97;;;16.90;35.60;;;;;;5071948;28;20124;-70
2023/03/01 12:21:09;;;;;;;6.30;3.13;;;16.20;35.70;;;;;;5070774;28;20043;-69
2023/03/01 12:23:46;;;;;;;5.50;2.67;;;15.90;37.00;;;;;;5070868;28;20024;-69
2023/03/01 12:26:28;;;;;;;4.40;2.70;;;15.60;37.40;;;;;;5072192;28;20048;-69
2023/03/01 12:29:09;;;;;;;4.68;2.70;;;15.20;37.60;;;;;;5071976;28;20040;-69
2023/03/01 12:31:49;;;;;;;4.93;2.60;;;15.30;37.40;;;;;;5070529;28;20479;-69
2023/03/01 12:34:29;;;;;;;9.90;3.20;;;15.10;37.40;;;;;;5071508;28;20238;-74
2023/03/01 12:37:04;;;;;;;4.70;2.65;;;15.00;38.40;;;;;;5071698;28;20119;-75
2023/03/01 12:39:35;;;;;;;10.25;3.00;;;14.80;38.00;;;;;;5071328;28;20028;-70
2023/03/01 12:42:20;;;;;;;4.47;2.70;;;14.60;38.30;;;;;;5070072;28;20074;-70
2023/03/01 12:45:23;;;;;;;8.75;3.47;;;14.50;38.40;;;;;;5071238;28;20075;-71
2023/03/01 12:48:07;;;;;;;9.00;3.42;;;14.40;38.50;;;;;;5071178;28;20032;-70
2023/03/01 12:50:44;;;;;;;5.85;2.75;;;14.20;38.90;;;;;;5070933;28;20025;-71
2023/03/01 12:53:23;;;;;;;9.85;3.58;;;14.10;38.80;;;;;;5071508;28;20024;-71
2023/03/01 12:55:53;;;;;;;19.80;9.57;;;14.00;39.30;;;;;;5071220;28;20036;-71
2023/03/01 12:58:39;;;;;;;8.07;4.15;;;13.90;39.30;;;;;;5070099;28;20135;-70
2023/03/01 13:01:26;;;;;;;6.88;2.80;;;13.90;39.20;;;;;;5069621;28;20135;-70
2023/03/01 13:04:17;;;;;;;6.88;3.40;;;13.70;39.50;;;;;;5070796;28;20083;-68
2023/03/01 13:07:05;;;;;;;10.60;3.33;;;13.60;40.40;;;;;;5070714;28;20039;-67